GW0132 Weather Reports


time (UTC)temp
F
wind
direction
speed
knots
gust
knots
rain 1hr
in
rain 24hr
in
rain mn
in
humidity
%
barometer
mb
20260507091455 33 263 0.0 0.0 0.00 0.00 0.00 99 1010.0
20260507090951 33 268 0.0 0.0 0.00 0.00 0.00 99 1010.0
20260507090442 33 262 0.0 0.0 0.00 0.00 0.00 99 1010.0
20260507085938 33 255 0.0 0.0 0.00 0.00 0.00 99 1009.8
20260507085436 33 258 0.0 0.0 0.00 0.00 0.00 99 1009.9
20260507084933 33 263 0.0 0.0 0.00 0.00 0.00 99 1010.1
20260507084430 33 263 0.0 0.0 0.00 0.00 0.00 99 1010.2
20260507083927 34 263 0.0 0.0 0.00 0.00 0.00 99 1010.0
20260507083423 34 263 0.0 0.0 0.00 0.00 0.00 99 1010.1
20260507082919 34 263 0.0 0.0 0.00 0.00 0.00 99 1010.1
20260507082415 34 264 0.0 0.0 0.00 0.00 0.00 99 1010.1
20260507081912 35 267 0.0 0.0 0.00 0.00 0.00 99 1010.1
20260507081408 35 264 0.0 0.0 0.00 0.00 0.00 99 1010.2
20260507080905 35 255 0.0 0.0 0.00 0.00 0.00 99 1009.9
20260507080402 35 246 0.0 0.9 0.00 0.00 0.00 99 1009.8
20260507075857 35 255 0.0 0.0 0.00 0.00 0.00 99 1010.0
20260507075353 35 262 0.0 0.0 0.00 0.00 0.00 99 1010.2
20260507074850 35 263 0.0 0.0 0.00 0.00 0.00 99 1010.1
20260507074347 36 266 0.0 0.0 0.00 0.00 0.00 99 1010.3
20260507073844 36 256 0.0 0.0 0.00 0.00 0.00 99 1010.2
20260507073341 36 257 0.0 0.0 0.00 0.00 0.00 99 1010.2
20260507072838 36 262 0.0 0.0 0.00 0.00 0.00 98 1010.2
20260507072336 36 262 0.0 0.0 0.00 0.00 0.00 98 1010.4
20260507071833 37 263 0.0 0.0 0.00 0.00 0.00 98 1010.4
20260507071330 37 265 0.0 0.0 0.00 0.00 0.00 98 1010.3
20260507070826 37 265 0.0 0.0 0.00 0.00 0.00 97 1010.3
20260507070324 37 262 0.0 0.0 0.00 0.00 0.00 97 1010.4
20260507065820 38 260 0.0 0.0 0.00 0.00 0.00 97 1010.6
20260507065317 39 266 0.0 0.0 0.00 0.00 0.00 97 1010.5
20260507064814 39 264 0.0 0.0 0.00 0.00 0.00 96 1010.3
20260507064313 39 262 0.0 0.0 0.00 0.00 0.00 96 1010.3
20260507063810 40 264 0.0 0.0 0.00 0.00 0.00 96 1010.1
20260507063307 40 266 0.0 0.0 0.00 0.00 0.00 95 1010.1
20260507062803 40 266 0.0 0.0 0.00 0.00 0.00 95 1010.2
20260507062301 40 263 0.0 0.0 0.00 0.00 0.00 94 1010.1
20260507061759 41 264 0.0 0.0 0.00 0.00 0.00 94 1010.3
20260507061256 41 258 0.0 0.0 0.00 0.00 0.00 94 1010.2
20260507060754 41 258 0.0 0.0 0.00 0.00 0.00 93 1010.1
20260507060250 41 261 0.0 0.0 0.00 0.00 0.00 92 1010.6
20260507055747 41 262 0.0 0.0 0.00 0.00 0.00 92 1010.7
20260507055242 41 255 0.0 0.0 0.00 0.00 0.00 92 1010.5
20260507054739 41 264 0.0 0.0 0.00 0.00 0.00 93 1010.6
20260507054236 41 262 0.0 0.0 0.00 0.00 0.00 93 1010.6
20260507053733 41 267 0.0 0.0 0.00 0.00 0.00 93 1010.9
20260507053231 41 264 0.0 0.0 0.00 0.00 0.00 93 1010.7
20260507052730 42 263 0.0 0.0 0.00 0.00 0.00 93 1010.9
20260507052225 42 264 0.0 0.0 0.00 0.00 0.00 92 1010.6
20260507051724 42 268 0.0 0.0 0.00 0.00 0.00 91 1010.8
20260507051220 42 264 0.0 0.0 0.00 0.00 0.00 91 1011.0
20260507050716 42 261 0.0 0.0 0.00 0.00 0.00 91 1010.9
20260507050208 42 262 0.0 0.0 0.00 0.00 0.00 92 1010.9
20260507045705 42 262 0.0 0.0 0.00 0.00 0.00 92 1010.9
20260507045201 42 280 0.0 0.9 0.00 0.00 0.00 92 1011.1
20260507044658 42 264 0.0 0.0 0.00 0.00 0.00 92 1010.8
20260507044155 42 263 0.0 0.0 0.00 0.00 0.00 91 1011.2
20260507043651 42 273 0.0 0.9 0.00 0.00 0.00 92 1010.8
20260507043148 42 266 0.0 0.0 0.00 0.00 0.00 91 1010.9
20260507042644 42 297 1.7 1.7 0.00 0.00 0.00 92 1010.9
20260507042139 42 266 0.0 0.0 0.00 0.00 0.00 93 1010.8
20260507041637 42 277 0.9 1.7 0.00 0.00 0.00 94 1010.7
20260507041133 42 277 0.9 0.9 0.00 0.00 0.00 95 1010.7
20260507040630 42 280 0.0 0.0 0.00 0.00 0.00 95 1010.6
20260507040127 42 276 0.9 0.9 0.00 0.00 0.00 97 1010.6
20260507035622 42 281 1.7 1.7 0.00 0.08 0.08 97 1010.7
20260507035119 42 282 0.0 0.0 0.00 0.08 0.08 98 1010.6
20260507034616 42 269 0.0 0.9 0.00 0.08 0.08 98 1010.7
20260507034113 42 270 0.0 0.0 0.00 0.08 0.08 98 1010.8
20260507033612 42 266 0.9 0.9 0.00 0.08 0.08 98 1010.7
20260507033108 42 274 0.9 0.9 0.00 0.08 0.08 98 1010.8
20260507032606 42 291 0.9 0.9 0.00 0.08 0.08 98 1010.4
20260507032101 42 248 0.0 0.0 0.00 0.08 0.08 98 1010.5
20260507031558 42 287 0.9 0.9 0.00 0.08 0.08 98 1010.4
20260507031055 42 253 0.0 0.0 0.00 0.08 0.08 98 1010.5
20260507030551 42 261 0.0 0.0 0.00 0.08 0.08 97 1010.4
20260507030049 42 278 0.0 0.0 0.00 0.08 0.08 97 1010.6
20260507025546 42 264 0.0 0.9 0.00 0.08 0.08 97 1010.2
20260507025043 42 266 0.0 0.0 0.00 0.08 0.08 97 1010.1
20260507024541 42 257 0.0 0.0 0.00 0.08 0.08 97 1010.5
20260507024037 42 271 0.0 0.0 0.00 0.08 0.08 97 1010.4
20260507023533 42 265 0.0 0.0 0.00 0.08 0.08 97 1010.5
20260507023031 43 265 0.0 0.0 0.00 0.08 0.08 97 1010.4
20260507022528 43 262 0.0 0.0 0.00 0.08 0.08 97 1010.5
20260507022023 43 213 0.0 0.9 0.00 0.08 0.08 97 1010.3
20260507021519 43 258 0.0 0.0 0.00 0.08 0.08 97 1010.6
20260507021016 43 262 0.0 0.0 0.00 0.08 0.08 96 1010.3
20260507020514 43 265 0.0 0.0 0.00 0.08 0.08 96 1010.4
20260507020010 43 263 0.0 0.0 0.00 0.08 0.08 96 1010.6
20260507015509 43 277 0.0 0.9 0.00 0.08 0.08 96 1010.7
20260507015006 43 304 1.7 1.7 0.00 0.08 0.08 96 1010.6
20260507014502 43 306 1.7 1.7 0.00 0.08 0.08 97 1010.7
20260507013958 43 265 0.0 0.0 0.00 0.08 0.08 97 1010.3
20260507013455 43 272 0.0 0.0 0.00 0.08 0.08 97 1010.3
20260507012952 43 272 0.0 0.9 0.00 0.08 0.08 97 1010.5
20260507012449 43 288 0.9 0.9 0.00 0.08 0.08 97 1010.6
20260507011945 44 263 1.7 1.7 0.00 0.08 0.08 97 1010.7
20260507011443 44 289 1.7 1.7 0.00 0.08 0.08 96 1010.5
20260507010938 44 285 0.9 1.7 0.00 0.08 0.08 96 1010.6
20260507010433 44 320 1.7 2.6 0.00 0.08 0.08 96 1010.5
20260507005930 44 264 1.7 1.7 0.00 0.08 0.08 96 1010.5
20260507005427 44 256 0.9 0.9 0.00 0.08 0.08 96 1010.3
20260507004924 44 281 0.9 0.9 0.00 0.08 0.08 96 1010.2
20260507004420 44 300 0.9 0.9 0.00 0.08 0.08 96 1010.1
20260507003918 44 296 0.9 0.9 0.00 0.08 0.08 96 1010.0
20260507003413 44 282 0.9 0.9 0.00 0.08 0.08 96 1009.6
20260507002908 44 296 1.7 1.7 0.00 0.08 0.08 96 1009.5
20260507002405 44 344 0.9 0.9 0.00 0.08 0.08 95 1009.4
20260507001902 44 286 1.7 2.6 0.00 0.08 0.08 95 1009.6
20260507001359 44 299 3.5 4.3 0.00 0.08 0.08 95 1009.6
20260507000856 45 303 2.6 2.6 0.00 0.08 0.08 95 1009.4
20260507000351 46 293 3.5 6.1 0.00 0.08 0.08 95 1009.3
20260506235847 46 295 2.6 2.6 0.00 0.08 0.08 94 1008.9
20260506235345 47 268 6.1 7.8 0.00 0.08 0.08 93 1009.2
20260506234840 47 271 0.9 0.9 0.00 0.08 0.08 92 1009.1
20260506234338 48 299 1.7 1.7 0.00 0.08 0.08 92 1009.0
20260506233836 48 250 1.7 1.7 0.00 0.08 0.08 92 1009.0
20260506233331 48 315 1.7 2.6 0.00 0.08 0.08 93 1009.0
20260506232829 49 248 2.6 4.3 0.00 0.08 0.08 94 1008.7
20260506232324 49 257 0.0 0.0 0.00 0.08 0.08 93 1008.3
20260506231821 49 260 0.0 0.0 0.00 0.08 0.08 92 1008.3
20260506231319 49 261 0.0 0.0 0.00 0.08 0.08 93 1008.2
20260506230816 49 258 0.0 0.0 0.00 0.08 0.08 92 1008.4
20260506230313 49 261 0.0 0.0 0.00 0.08 0.08 91 1008.3
20260506225809 49 237 0.9 0.9 0.00 0.08 0.08 90 1008.5
20260506225306 50 261 0.0 0.0 0.00 0.08 0.08 91 1008.1
20260506224803 50 261 0.0 0.0 0.00 0.08 0.08 89 1008.2
20260506224300 50 254 0.0 0.0 0.00 0.08 0.08 89 1008.1
20260506223756 49 263 0.0 0.0 0.00 0.08 0.08 90 1008.2
20260506223252 50 224 0.0 0.0 0.00 0.08 0.08 89 1007.8
20260506222749 50 265 0.0 0.9 0.00 0.08 0.08 89 1008.1
20260506222244 50 226 0.9 0.9 0.00 0.08 0.08 88 1008.1
20260506221737 50 278 0.0 0.9 0.00 0.08 0.08 88 1008.1
20260506221235 50 260 0.0 0.0 0.00 0.08 0.08 89 1007.9
20260506220731 49 229 0.0 0.9 0.00 0.08 0.08 89 1008.0
20260506220226 50 269 0.0 0.0 0.00 0.08 0.08 88 1008.1
20260506215723 49 279 0.0 0.0 0.00 0.08 0.08 89 1007.9
20260506215219 49 233 1.7 1.7 0.00 0.08 0.08 88 1007.9
20260506214716 48 265 0.0 0.0 0.00 0.08 0.08 88 1007.9
20260506214213 49 274 0.9 0.9 0.00 0.08 0.08 91 1007.7
20260506213711 49 255 0.0 0.0 0.00 0.08 0.08 91 1007.7
20260506213208 50 239 0.0 0.0 0.00 0.08 0.08 89 1007.9
20260506212705 49 263 0.0 0.0 0.00 0.08 0.08 87 1008.0
20260506212200 49 247 0.9 0.9 0.00 0.08 0.08 86 1008.0
20260506211656 49 260 0.0 0.0 0.00 0.08 0.08 88 1007.8
20260506211153 50 231 0.0 0.0 0.00 0.08 0.08 88 1007.9
20260506210650 50 269 0.9 0.9 0.00 0.08 0.08 86 1008.0
20260506210146 50 314 2.6 2.6 0.00 0.08 0.08 85 1008.0
20260506205644 50 267 0.0 0.9 0.00 0.08 0.08 86 1008.1
20260506205138 50 243 0.9 0.9 0.00 0.08 0.08 87 1008.0
20260506204637 50 277 0.9 0.9 0.00 0.08 0.08 89 1007.9
20260506204133 50 329 0.0 0.9 0.00 0.08 0.08 87 1007.8
20260506203631 49 270 0.9 0.9 0.00 0.08 0.08 87 1007.8
20260506203128 48 243 0.9 0.9 0.00 0.08 0.08 86 1008.0
20260506202626 48 268 0.0 0.0 0.00 0.08 0.08 89 1008.1
20260506202122 48 243 0.9 1.7 0.00 0.08 0.08 88 1008.2
20260506201619 48 216 0.9 0.9 0.00 0.08 0.08 90 1007.9
20260506201115 48 266 0.0 0.9 0.00 0.08 0.08 89 1007.8
20260506200612 48 281 0.0 0.0 0.00 0.08 0.08 89 1007.8
20260506200109 48 279 0.9 0.9 0.00 0.08 0.08 91 1007.7
20260506195605 48 261 0.0 0.0 0.00 0.08 0.08 90 1007.8
20260506195102 48 271 0.9 0.9 0.00 0.08 0.08 90 1008.0
20260506194559 48 320 0.9 0.9 0.00 0.08 0.08 90 1008.1
20260506194055 48 267 0.0 0.0 0.00 0.08 0.08 90 1007.8
20260506193553 47 297 0.9 0.9 0.00 0.08 0.08 91 1007.9
20260506193050 47 321 0.9 0.9 0.00 0.08 0.08 90 1007.8
20260506192547 48 3 0.9 0.9 0.00 0.08 0.08 91 1007.7
20260506192043 46 276 0.9 0.9 0.00 0.08 0.08 91 1007.8
20260506191540 47 262 0.0 0.0 0.00 0.08 0.08 92 1007.9
20260506191036 46 286 0.0 0.9 0.00 0.08 0.08 93 1007.9
20260506190533 47 38 0.9 1.7 0.00 0.08 0.08 93 1007.7
20260506190030 47 290 0.9 1.7 0.00 0.08 0.08 93 1008.0
20260506185527 47 291 0.9 1.7 0.00 0.08 0.08 94 1008.2
20260506185024 47 267 0.0 0.9 0.00 0.08 0.08 94 1007.9
20260506184521 46 265 0.9 0.9 0.00 0.08 0.08 94 1007.8
20260506184018 47 328 1.7 1.7 0.00 0.08 0.08 95 1008.1
20260506183514 46 278 0.0 0.9 0.00 0.08 0.08 96 1007.9
20260506183011 46 264 0.9 1.7 0.00 0.08 0.08 96 1007.9
20260506182509 46 272 0.9 0.9 0.00 0.08 0.08 96 1007.8
20260506182005 46 282 1.7 2.6 0.00 0.08 0.08 96 1008.0
20260506181503 46 337 0.9 1.7 0.00 0.08 0.08 96 1008.0
20260506181000 46 265 0.0 0.9 0.00 0.08 0.08 96 1007.8
20260506180456 46 313 0.9 0.9 0.00 0.08 0.08 96 1008.0
20260506175953 46 290 0.9 0.9 0.00 0.08 0.08 96 1007.9
20260506175450 46 333 2.6 2.6 0.00 0.08 0.08 96 1008.0
20260506174946 46 293 0.0 0.9 0.00 0.08 0.08 97 1008.1
20260506174444 46 282 0.9 0.9 0.00 0.08 0.08 97 1007.9
20260506173940 46 278 0.9 0.9 0.00 0.08 0.08 97 1007.7
20260506173438 46 262 1.7 1.7 0.00 0.08 0.08 97 1007.6
20260506172934 46 299 0.9 0.9 0.00 0.08 0.08 98 1007.4
20260506172431 46 304 0.9 1.7 0.00 0.08 0.08 98 1007.5
20260506171923 46 311 1.7 1.7 0.00 0.08 0.08 99 1007.4
20260506171420 46 266 0.9 1.7 0.00 0.08 0.08 99 1007.3
20260506170918 47 55 0.9 1.7 0.00 0.08 0.08 99 1007.2
20260506170414 46 308 0.9 1.7 0.00 0.08 0.08 99 1007.2
20260506165913 46 322 1.7 1.7 0.00 0.08 0.08 99 1007.2
20260506165411 46 298 1.7 1.7 0.00 0.08 0.08 99 1007.3
20260506164906 46 271 0.9 0.9 0.00 0.08 0.08 99 1007.3
20260506164402 45 299 0.9 1.7 0.00 0.08 0.08 99 1007.4
20260506163856 45 319 0.9 0.9 0.00 0.08 0.08 99 1007.2
20260506163349 46 282 0.9 0.9 0.00 0.08 0.08 99 1007.2
20260506162844 45 270 0.9 0.9 0.00 0.08 0.08 99 1007.3
20260506162343 46 311 0.9 1.7 0.00 0.08 0.08 99 1006.9
20260506161835 46 74 0.9 1.7 0.00 0.08 0.08 99 1006.9
20260506161332 45 250 1.7 1.7 0.00 0.08 0.08 99 1007.1
20260506160829 45 264 0.0 0.0 0.00 0.08 0.08 99 1007.2
20260506160326 45 276 0.9 0.9 0.00 0.08 0.08 99 1007.3
20260506155825 44 326 0.0 0.0 0.00 0.08 0.08 99 1007.3
20260506155320 45 58 0.9 0.9 0.00 0.08 0.08 99 1007.4
20260506153433 45 269 0.0 0.9 0.00 0.08 0.08 99 1007.5
20260506152931 45 291 0.9 0.9 0.00 0.08 0.08 99 1007.2
20260506152427 45 258 0.0 0.0 0.00 0.08 0.08 99 1007.1
20260506151926 45 309 1.7 1.7 0.00 0.08 0.08 99 1007.0
20260506151422 45 309 0.9 0.9 0.00 0.08 0.08 99 1007.2
20260506150921 45 310 0.9 0.9 0.00 0.08 0.08 99 1007.1
20260506150416 44 286 0.9 0.9 0.00 0.08 0.08 99 1006.7
20260506145913 44 321 0.0 0.9 0.00 0.08 0.08 99 1007.3
20260506145409 45 255 0.0 0.0 0.05 0.08 0.08 99 1007.0
20260506144907 45 266 0.0 0.0 0.05 0.08 0.08 99 1007.1
20260506144403 45 287 0.0 0.9 0.00 0.07 0.07 99 1007.0
20260506143902 44 285 0.9 1.7 0.00 0.07 0.07 99 1006.6
20260506143358 44 288 0.9 0.9 0.00 0.07 0.07 99 1006.6
20260506142857 44 269 0.0 0.9 0.00 0.07 0.07 99 1006.4
20260506142354 44 223 0.0 0.0 0.00 0.07 0.07 99 1006.6
20260506141852 44 186 0.0 0.9 0.07 0.07 0.07 99 1007.0
20260506141350 44 288 0.0 0.9 0.07 0.07 0.07 99 1006.6
20260506140848 44 302 0.9 0.9 0.07 0.07 0.07 99 1006.6
20260506140344 44 257 0.0 0.9 0.00 0.06 0.06 99 1006.7
20260506135842 44 277 0.0 0.0 0.00 0.06 0.06 99 1006.4
20260506135338 44 257 0.0 0.0 0.05 0.06 0.06 99 1006.4
20260506134834 44 313 0.9 0.9 0.05 0.06 0.06 99 1006.9
20260506134331 44 265 0.0 0.0 0.00 0.05 0.05 99 1006.7
20260506133828 44 296 0.0 0.9 0.00 0.05 0.05 99 1006.5
20260506133325 44 262 0.0 0.9 0.00 0.05 0.05 99 1006.6
20260506132822 43 260 0.0 0.0 0.00 0.05 0.05 99 1006.5
20260506132319 43 279 0.0 0.9 0.00 0.05 0.05 99 1006.5
20260506131817 43 332 0.9 0.9 0.07 0.05 0.05 99 1006.7
20260506131313 43 24 0.9 0.9 0.07 0.05 0.05 99 1006.5
20260506130810 43 260 0.9 0.9 0.00 0.04 0.04 99 1006.5
20260506130306 43 248 0.0 0.9 0.00 0.04 0.04 99 1006.4
20260506125804 43 268 0.9 0.9 0.00 0.04 0.04 99 1006.3
20260506125305 43 249 0.0 0.9 0.00 0.04 0.04 99 1006.4
20260506124801 43 308 0.9 0.9 0.00 0.04 0.04 99 1006.4
20260506124257 43 353 0.9 0.9 0.05 0.04 0.04 99 1006.4
20260506123755 43 234 0.9 0.9 0.05 0.04 0.04 99 1006.6
20260506123254 43 257 0.0 0.0 0.00 0.03 0.03 99 1006.9
20260506122750 43 294 0.9 0.9 0.00 0.03 0.03 99 1006.7
20260506122247 43 355 0.9 1.7 0.00 0.03 0.03 99 1006.9
20260506121745 43 229 0.9 1.7 0.07 0.03 0.03 99 1006.7
20260506121242 43 278 0.0 0.9 0.07 0.03 0.03 99 1006.9
20260506120739 43 246 0.9 1.7 0.05 0.02 0.02 99 1006.9
20260506120237 43 71 0.9 0.9 0.05 0.02 0.02 99 1006.6
20260506115734 43 260 0.0 0.0 0.00 0.01 0.01 99 1006.7
20260506115233 43 236 0.9 0.9 0.07 0.01 0.01 99 1006.9
20260506114730 43 274 0.9 0.9 0.07 0.01 0.01 99 1006.6
20260506114227 43 270 0.9 0.9 0.00 0.72 0.72 99 1006.5
20260506113726 43 319 0.9 1.7 0.00 0.72 0.72 99 1006.4
20260506113223 43 340 2.6 2.6 0.00 0.72 0.72 99 1006.2
20260506112719 43 55 0.9 0.9 0.00 0.72 0.72 99 1005.9
20260506112217 43 335 0.9 1.7 0.00 0.72 0.72 99 1006.0
20260506111714 43 241 0.0 0.0 0.00 0.72 0.72 99 1006.1
20260506111212 43 318 0.9 0.9 0.05 0.72 0.72 99 1006.0
20260506110709 44 336 1.7 2.6 0.05 0.72 0.72 99 1006.0
20260506110206 44 321 0.9 1.7 0.00 0.71 0.71 99 1006.1
20260506105703 44 328 0.9 1.7 0.07 0.71 0.71 99 1005.7
20260506105200 44 263 0.0 0.9 0.07 0.71 0.71 99 1005.9
20260506104658 43 224 0.0 0.9 0.00 0.70 0.70 99 1006.1
20260506104155 43 245 0.9 0.9 0.07 0.70 0.70 99 1006.2
20260506103652 44 266 0.0 0.0 0.07 0.70 0.70 99 1006.2
20260506103149 43 292 0.0 0.0 0.05 0.69 0.69 99 1006.4
20260506102647 43 240 0.0 0.0 0.12 0.69 0.69 99 1006.7
20260506102144 43 34 1.7 1.7 0.07 0.68 0.68 99 1006.5
20260506101641 43 293 0.9 1.7 0.05 0.67 0.67 99 1006.3
20260506101138 43 96 3.5 4.3 0.12 0.67 0.67 99 1006.4
20260506100636 43 326 0.9 0.9 0.12 0.66 0.66 99 1006.4
20260506100134 44 346 0.9 0.9 0.05 0.65 0.65 99 1006.5
20260506095632 44 266 0.0 0.9 0.07 0.64 0.64 99 1006.3
20260506095129 44 323 0.9 0.9 0.12 0.64 0.64 99 1006.0
20260506094626 44 286 0.9 0.9 0.12 0.63 0.63 99 1006.1
20260506094124 44 300 0.9 0.9 0.12 0.62 0.62 99 1006.0
20260506093622 44 297 0.9 1.7 0.12 0.61 0.61 99 1005.9
20260506093119 44 10 0.9 0.9 0.14 0.60 0.60 99 1006.0
20260506092617 44 265 0.9 0.9 0.07 0.59 0.59 99 1006.3
20260506092114 44 327 0.9 0.9 0.12 0.59 0.59 99 1006.1